createdAt,value
2022-12-15T00:00:43.312Z,94407.75
2022-12-15T00:03:47.771Z,94415.31
2022-12-15T00:06:53.348Z,94405.06
2022-12-15T00:09:57.505Z,94398.31
2022-12-15T00:13:01.916Z,94402.28
2022-12-15T00:16:07.908Z,94387.16
2022-12-15T00:19:12.289Z,94378.81
2022-12-15T00:22:16.905Z,94390.03
2022-12-15T00:25:21.703Z,94400.44
2022-12-15T00:28:26.233Z,94396.38
2022-12-15T00:31:30.841Z,94395.28
2022-12-15T00:34:35.441Z,94407.25
2022-12-15T00:37:39.838Z,94401.59
2022-12-15T00:40:25.597Z,94408.84
2022-12-15T00:43:12.205Z,94408.75
2022-12-15T00:46:17.089Z,94421.34
2022-12-15T00:49:03.489Z,94435.56
2022-12-15T00:52:07.708Z,94439.84
2022-12-15T00:55:12.149Z,94451.06
2022-12-15T00:58:17.828Z,94446.28
2022-12-15T01:01:27.052Z,94468.75
2022-12-15T01:04:31.373Z,94466.53
2022-12-15T01:07:36.640Z,94463.84
2022-12-15T01:10:41.267Z,94476.66
2022-12-15T01:13:45.883Z,94470.78
2022-12-15T01:16:54.554Z,94467.50
2022-12-15T01:19:58.926Z,94467.50
2022-12-15T01:22:46.592Z,94486.78
2022-12-15T01:25:32.485Z,94466.91
2022-12-15T01:28:19.408Z,94463.72
2022-12-15T01:31:12.500Z,94479.22
2022-12-15T01:33:58.348Z,94477.16
2022-12-15T01:36:44.044Z,94488.38
2022-12-15T01:39:49.847Z,94496.91
2022-12-15T01:42:35.666Z,94506.06
2022-12-15T01:45:24.425Z,94489.56
2022-12-15T01:48:13.504Z,94494.34
2022-12-15T01:51:11.428Z,94497.03
2022-12-15T01:54:00.456Z,94507.75
2022-12-15T01:56:49.659Z,94501.91
2022-12-15T01:59:39.418Z,94498.72
2022-12-15T02:02:27.307Z,94503.47
2022-12-15T02:05:13.595Z,94512.63
2022-12-15T02:08:00.178Z,94510.44
2022-12-15T02:11:08.312Z,94511.22
2022-12-15T02:14:24.563Z,94519.59
2022-12-15T02:17:28.075Z,94518.19
2022-12-15T02:20:35.758Z,94514.22
2022-12-15T02:23:27.520Z,94517.38
2022-12-15T02:26:47.118Z,94518.78
2022-12-15T02:30:14.969Z,94520.38
2022-12-15T02:33:19.336Z,94528.13
2022-12-15T02:36:27.896Z,94521.16
2022-12-15T02:39:14.630Z,94517.69
2022-12-15T02:42:00.919Z,94525.94
2022-12-15T02:44:56.379Z,94514.22
2022-12-15T02:47:49.286Z,94538.25
2022-12-15T02:50:58.277Z,94531.31
2022-12-15T02:53:47.092Z,94539.84
2022-12-15T02:56:50.508Z,94538.84
2022-12-15T02:59:42.360Z,94531.31
2022-12-15T03:02:31.527Z,94541.25
2022-12-15T03:05:19.234Z,94547.41
2022-12-15T03:08:05.230Z,94554.97
2022-12-15T03:10:53.030Z,94577.41
2022-12-15T03:13:41.647Z,94581.19
2022-12-15T03:16:27.832Z,94579.59
2022-12-15T03:19:13.971Z,94589.53
2022-12-15T03:22:00.002Z,94601.56
2022-12-15T03:24:45.846Z,94604.41
2022-12-15T03:27:32.404Z,94604.41
2022-12-15T03:30:18.969Z,94606.81
2022-12-15T03:33:05.059Z,94611.06
2022-12-15T03:35:51.355Z,94612.16
2022-12-15T03:38:37.299Z,94613.75
2022-12-15T03:41:23.042Z,94622.31
2022-12-15T03:44:09.619Z,94633.03
2022-12-15T03:47:01.270Z,94635.44
2022-12-15T03:49:50.079Z,94642.19
2022-12-15T03:52:36.201Z,94632.25
2022-12-15T03:55:22.975Z,94625.09
2022-12-15T03:58:08.721Z,94621.81
2022-12-15T04:00:55.838Z,94633.03
2022-12-15T04:03:41.650Z,94641.09
2022-12-15T04:06:28.257Z,94646.97
2022-12-15T04:09:14.343Z,94641.59
2022-12-15T04:12:00.093Z,94629.28
2022-12-15T04:14:45.779Z,94640.00
2022-12-15T04:17:31.470Z,94655.00
2022-12-15T04:20:17.271Z,94661.47
2022-12-15T04:23:03.410Z,94652.31
2022-12-15T04:26:08.522Z,94665.84
2022-12-15T04:29:13.184Z,94681.34
2022-12-15T04:32:17.223Z,94670.63
2022-12-15T04:35:21.632Z,94675.97
2022-12-15T04:38:26.080Z,94688.31
2022-12-15T04:41:31.611Z,94690.50
2022-12-15T04:44:36.500Z,94696.47
2022-12-15T04:47:40.798Z,94702.63
2022-12-15T04:50:45.162Z,94709.38
2022-12-15T04:53:49.609Z,94719.00
2022-12-15T04:56:54.156Z,94732.44
2022-12-15T04:59:58.411Z,94732.44
2022-12-15T05:03:03.066Z,94741.56
2022-12-15T05:06:07.419Z,94738.88
2022-12-15T05:09:12.052Z,94735.75
2022-12-15T05:12:16.449Z,94738.41
2022-12-15T05:15:21.721Z,94740.78
2022-12-15T05:18:28.381Z,94751.72
2022-12-15T05:21:35.437Z,94774.78
2022-12-15T05:24:39.915Z,94782.84
2022-12-15T05:27:44.551Z,94780.16
2022-12-15T05:30:48.977Z,94774.19
2022-12-15T05:33:35.250Z,94778.16
2022-12-15T05:36:21.742Z,94774.19
2022-12-15T05:39:07.811Z,94778.56
2022-12-15T05:41:55.065Z,94792.47
2022-12-15T05:44:41.019Z,94799.22
2022-12-15T05:47:26.870Z,94798.44
2022-12-15T05:50:13.026Z,94793.66
2022-12-15T05:52:59.992Z,94794.44
2022-12-15T05:55:45.751Z,94797.47
2022-12-15T05:58:31.902Z,94803.41
2022-12-15T06:01:19.195Z,94799.63
2022-12-15T06:04:05.455Z,94810.38
2022-12-15T06:06:51.388Z,94821.91
2022-12-15T06:09:37.282Z,94821.59
2022-12-15T06:12:23.092Z,94830.63
2022-12-15T06:15:10.448Z,94826.28
2022-12-15T06:17:56.742Z,94816.13
2022-12-15T06:20:42.942Z,94825.06
2022-12-15T06:23:29.587Z,94839.00
2022-12-15T06:26:23.667Z,94847.56
2022-12-15T06:29:10.311Z,94852.94
2022-12-15T06:31:55.948Z,94845.38
2022-12-15T06:34:41.759Z,94844.56
2022-12-15T06:37:27.444Z,94857.09
2022-12-15T06:40:13.263Z,94851.72
2022-12-15T06:42:59.247Z,94859.47
2022-12-15T06:45:49.816Z,94874.22
2022-12-15T06:48:35.838Z,94863.88
2022-12-15T06:51:22.141Z,94877.41
2022-12-15T06:54:11.286Z,94891.50
2022-12-15T06:56:57.732Z,94898.19
2022-12-15T06:59:43.737Z,94896.28
2022-12-15T07:02:30.304Z,94893.31
2022-12-15T07:05:16.600Z,94900.56
2022-12-15T07:08:02.553Z,94897.88
2022-12-15T07:10:48.347Z,94895.00
2022-12-15T07:13:34.581Z,94911.00
2022-12-15T07:16:22.492Z,94916.09
2022-12-15T07:19:12.520Z,94909.31
2022-12-15T07:21:59.089Z,94913.78
2022-12-15T07:24:46.213Z,94909.72
2022-12-15T07:27:42.219Z,94915.78
2022-12-15T07:30:42.445Z,94920.28
2022-12-15T07:33:28.963Z,94913.69
2022-12-15T07:36:15.124Z,94909.63
2022-12-15T07:39:01.564Z,94916.00
2022-12-15T07:41:47.482Z,94915.63
2022-12-15T07:44:35.321Z,94908.06
2022-12-15T07:47:21.038Z,94915.53
2022-12-15T07:50:07.852Z,94920.28
2022-12-15T07:52:55.309Z,94922.38
2022-12-15T07:56:05.506Z,94928.75
2022-12-15T07:58:47.789Z,94928.13
2022-12-15T08:01:35.335Z,94930.22
2022-12-15T08:04:21.378Z,94935.50
2022-12-15T08:07:09.005Z,94931.09
2022-12-15T08:09:54.674Z,94924.53
2022-12-15T08:12:40.509Z,94931.88
2022-12-15T08:15:26.751Z,94926.88
2022-12-15T08:18:12.773Z,94945.59
2022-12-15T08:21:06.543Z,94958.16
2022-12-15T08:23:52.242Z,94959.72
2022-12-15T08:26:38.588Z,94976.06
2022-12-15T08:29:50.113Z,94982.44
2022-12-15T08:32:30.992Z,94987.19
2022-12-15T08:35:46.787Z,94980.69
2022-12-15T08:38:23.548Z,94999.31
2022-12-15T08:41:17.961Z,94996.53
2022-12-15T08:44:08.326Z,94981.97
2022-12-15T08:46:54.095Z,94985.53
2022-12-15T08:49:40.224Z,94997.78
2022-12-15T08:52:26.171Z,94986.69
2022-12-15T08:55:11.912Z,94992.63
2022-12-15T08:57:57.622Z,94993.00
2022-12-15T09:00:43.323Z,94991.78
2022-12-15T09:03:29.930Z,94991.53
2022-12-15T09:06:18.638Z,94983.94
2022-12-15T09:09:07.652Z,94988.72
2022-12-15T09:11:53.660Z,94988.72
2022-12-15T09:14:39.402Z,94988.22
2022-12-15T09:17:25.162Z,94981.53
2022-12-15T09:20:15.245Z,94994.09
2022-12-15T09:23:03.462Z,94982.34
2022-12-15T09:25:49.275Z,94987.31
2022-12-15T09:28:35.595Z,94987.97
2022-12-15T09:31:28.857Z,94988.47
2022-12-15T09:34:16.184Z,94997.03
2022-12-15T09:37:02.357Z,94997.03
2022-12-15T09:39:49.075Z,94994.34
2022-12-15T09:42:35.200Z,94997.63
2022-12-15T09:45:37.690Z,95000.47
2022-12-15T09:48:25.247Z,95000.09
2022-12-15T09:51:15.478Z,94998.50
2022-12-15T09:54:01.977Z,94998.50
2022-12-15T09:56:53.345Z,94997.53
2022-12-15T09:59:57.335Z,95007.06
2022-12-15T10:03:01.993Z,95012.47
2022-12-15T10:06:16.680Z,95010.56
2022-12-15T10:09:15.006Z,95010.88
2022-12-15T10:12:08.935Z,95003.41
2022-12-15T10:15:23.640Z,95012.91
2022-12-15T10:18:35.303Z,95008.91
2022-12-15T10:21:22.470Z,95009.53
2022-12-15T10:24:44.498Z,95011.13
2022-12-15T10:27:56.237Z,95000.34
2022-12-15T10:30:58.945Z,94998.94
2022-12-15T10:33:50.352Z,94994.72
2022-12-15T10:36:36.237Z,94999.50
2022-12-15T10:39:23.568Z,94997.44
2022-12-15T10:42:17.041Z,94994.34
2022-12-15T10:45:02.980Z,95000.56
2022-12-15T10:47:59.061Z,94999.31
2022-12-15T10:50:44.845Z,94993.50
2022-12-15T10:53:37.655Z,94998.47
2022-12-15T10:56:32.734Z,94993.47
2022-12-15T10:59:34.187Z,94988.41
2022-12-15T11:02:34.323Z,94988.75
2022-12-15T11:05:20.785Z,94980.53
2022-12-15T11:08:17.031Z,94990.06
2022-12-15T11:11:26.010Z,94986.75
2022-12-15T11:14:29.791Z,94990.88
2022-12-15T11:17:21.633Z,94996.13
2022-12-15T11:20:17.425Z,94993.31
2022-12-15T11:23:13.981Z,94989.22
2022-12-15T11:29:21.917Z,94992.91
2022-12-15T11:32:11.259Z,94990.84
2022-12-15T11:34:57.275Z,94995.00
2022-12-15T11:37:44.263Z,94992.44
2022-12-15T11:40:40.984Z,95000.41
2022-12-15T11:43:46.442Z,94993.41
2022-12-15T11:46:51.461Z,95000.09
2022-12-15T11:49:59.135Z,95006.72
2022-12-15T11:53:05.249Z,95016.13
2022-12-15T11:56:06.981Z,95009.91
2022-12-15T11:59:10.284Z,95006.91
2022-12-15T12:05:22.786Z,94999.13
2022-12-15T12:08:20.949Z,94999.91
2022-12-15T12:11:23.228Z,95005.31
2022-12-15T12:14:31.440Z,95016.41
2022-12-15T12:17:27.974Z,95019.59
2022-12-15T12:20:30.149Z,95028.00
2022-12-15T12:23:32.294Z,95031.81
2022-12-15T12:26:38.094Z,95026.59
2022-12-15T12:29:30.821Z,95022.31
2022-12-15T12:32:30.793Z,95019.13
2022-12-15T12:35:31.858Z,95019.44
2022-12-15T12:38:36.645Z,95012.44
2022-12-15T12:41:44.036Z,95020.03
2022-12-15T12:44:36.063Z,95029.25
2022-12-15T12:47:44.841Z,95017.19
2022-12-15T12:50:31.988Z,95024.97
2022-12-15T12:53:32.990Z,95027.50
2022-12-15T12:56:50.514Z,95026.06
2022-12-15T12:59:39.242Z,95026.84
2022-12-15T13:02:25.152Z,95012.06
2022-12-15T13:05:33.207Z,95014.31
2022-12-15T13:08:26.888Z,95019.72
2022-12-15T13:11:53.795Z,95018.72
2022-12-15T13:14:39.685Z,95026.34
2022-12-15T13:17:31.324Z,95031.91
2022-12-15T13:20:28.817Z,95035.22
2022-12-15T13:23:23.992Z,95028.84
2022-12-15T13:26:10.815Z,95037.56
2022-12-15T13:28:57.245Z,95034.69
2022-12-15T13:31:49.644Z,95048.66
2022-12-15T13:34:38.956Z,95046.56
2022-12-15T13:37:46.981Z,95052.75
2022-12-15T13:40:35.351Z,95057.34
2022-12-15T13:43:27.335Z,95068.75
2022-12-15T13:46:20.667Z,95080.16
2022-12-15T13:49:17.388Z,95086.19
2022-12-15T13:52:12.597Z,95086.78
2022-12-15T13:55:00.271Z,95084.22
2022-12-15T13:57:57.320Z,95090.25
2022-12-15T14:00:55.017Z,95093.06
2022-12-15T14:03:41.080Z,95088.91
2022-12-15T14:06:38.508Z,95099.69
2022-12-15T14:09:29.055Z,95102.50
2022-12-15T14:12:15.020Z,95102.50
2022-12-15T14:15:01.464Z,95102.50
2022-12-15T14:17:51.414Z,95098.50
2022-12-15T14:20:41.257Z,95101.19
2022-12-15T14:23:30.252Z,95103.06
2022-12-15T14:26:16.631Z,95104.16
2022-12-15T14:29:05.543Z,95110.88
2022-12-15T14:31:56.605Z,95115.47
2022-12-15T14:34:43.301Z,95106.28
2022-12-15T14:37:29.387Z,95105.50
2022-12-15T14:40:17.509Z,95109.00
2022-12-15T14:43:04.946Z,95108.47
2022-12-15T14:45:57.589Z,95112.25
2022-12-15T14:48:50.507Z,95115.47
2022-12-15T14:51:43.490Z,95115.47
2022-12-15T14:54:31.754Z,95118.19
2022-12-15T14:57:25.405Z,95116.09
2022-12-15T15:00:25.809Z,95124.63
2022-12-15T15:03:04.784Z,94990.34
2022-12-15T15:03:07.046Z,95004.81
2022-12-15T15:03:18.487Z,95120.88
2022-12-15T15:06:05.465Z,95118.44
2022-12-15T15:08:53.011Z,95119.25
2022-12-15T15:11:40.900Z,95127.06
2022-12-15T15:14:32.925Z,95125.47
2022-12-15T15:17:27.038Z,95132.16
2022-12-15T15:20:26.908Z,95132.94
2022-12-15T15:23:19.376Z,95141.81
2022-12-15T15:26:05.404Z,95139.13
2022-12-15T15:28:51.621Z,95127.25
2022-12-15T15:31:41.691Z,95122.47
2022-12-15T15:34:28.093Z,95128.03
2022-12-15T15:37:18.493Z,95131.53
2022-12-15T15:40:06.723Z,95125.66
2022-12-15T15:42:52.432Z,95122.97
2022-12-15T15:45:39.683Z,95131.03
2022-12-15T15:48:27.653Z,95142.03
2022-12-15T15:51:14.313Z,95148.22
2022-12-15T15:54:05.712Z,95146.63
2022-12-15T15:56:51.705Z,95155.81
2022-12-15T15:59:39.932Z,95157.41
2022-12-15T16:02:26.074Z,95159.00
2022-12-15T16:05:12.182Z,95159.00
2022-12-15T16:07:58.682Z,95156.28
2022-12-15T16:10:47.528Z,95148.81
2022-12-15T16:13:33.341Z,95161.69
2022-12-15T16:16:22.053Z,95164.38
2022-12-15T16:19:08.132Z,95162.91
2022-12-15T16:21:55.505Z,95170.88
2022-12-15T16:24:42.561Z,95171.38
2022-12-15T16:27:28.257Z,95164.84
2022-12-15T16:30:23.577Z,95172.16
2022-12-15T16:33:09.864Z,95179.13
2022-12-15T16:35:55.924Z,95180.25
2022-12-15T16:38:42.870Z,95171.38
2022-12-15T16:41:28.575Z,95171.38
2022-12-15T16:44:14.211Z,95173.28
2022-12-15T16:46:59.997Z,95171.69
2022-12-15T16:49:45.746Z,95174.88
2022-12-15T16:52:31.392Z,95171.38
2022-12-15T16:55:22.430Z,95161.19
2022-12-15T16:58:12.030Z,95168.19
2022-12-15T17:00:58.418Z,95169.28
2022-12-15T17:03:44.551Z,95164.00
2022-12-15T17:06:30.374Z,95161.19
2022-12-15T17:09:20.963Z,95170.38
2022-12-15T17:12:08.198Z,95174.19
2022-12-15T17:14:54.264Z,95188.75
2022-12-15T17:17:40.497Z,95177.47
2022-12-15T17:20:30.273Z,95180.97
2022-12-15T17:23:19.677Z,95182.34
2022-12-15T17:26:28.502Z,95192.53
2022-12-15T17:29:18.416Z,95192.53
2022-12-15T17:32:06.145Z,95199.31
2022-12-15T17:34:52.068Z,95201.13
2022-12-15T17:37:38.269Z,95200.34
2022-12-15T17:40:24.286Z,95209.22
2022-12-15T17:43:23.000Z,95206.53
2022-12-15T17:46:08.950Z,95214.59
2022-12-15T17:48:55.081Z,95207.91
2022-12-15T17:51:43.393Z,95224.28
2022-12-15T17:54:30.000Z,95232.38
2022-12-15T17:57:16.101Z,95230.47
2022-12-15T18:00:02.071Z,95233.69
2022-12-15T18:02:51.121Z,95238.75
2022-12-15T18:05:37.534Z,95245.25
2022-12-15T18:08:26.159Z,95239.88
2022-12-15T18:11:15.783Z,95234.47
2022-12-15T18:14:01.753Z,95231.28
2022-12-15T18:16:47.557Z,95224.78
2022-12-15T18:19:35.116Z,95214.31
2022-12-15T18:22:23.438Z,95225.88
2022-12-15T18:25:21.215Z,95227.47
2022-12-15T18:28:28.680Z,95213.00
2022-12-15T18:31:26.078Z,95208.19
2022-12-15T18:34:21.151Z,95218.69
2022-12-15T18:37:16.540Z,95221.66
2022-12-15T18:40:04.935Z,95221.66
2022-12-15T18:42:50.973Z,95218.50
2022-12-15T18:45:36.670Z,95225.47
2022-12-15T18:48:27.072Z,95220.06
2022-12-15T18:51:19.776Z,95223.91
2022-12-15T18:54:20.729Z,95213.72
2022-12-15T18:57:28.097Z,95229.88
2022-12-15T19:00:13.845Z,95230.38
2022-12-15T19:03:02.414Z,95240.66
2022-12-15T19:05:49.115Z,95232.56
2022-12-15T19:08:36.244Z,95235.56
2022-12-15T19:11:31.042Z,95235.06
2022-12-15T19:14:36.777Z,95228.09
2022-12-15T19:17:42.748Z,95229.97
2022-12-15T19:20:47.312Z,95228.72
2022-12-15T19:23:33.681Z,95225.22
2022-12-15T19:26:19.922Z,95213.94
2022-12-15T19:29:22.536Z,95216.13
2022-12-15T19:32:08.836Z,95213.44
2022-12-15T19:34:54.527Z,95211.84
2022-12-15T19:37:42.893Z,95215.13
2022-12-15T19:40:30.745Z,95213.88
2022-12-15T19:43:17.378Z,95216.84
2022-12-15T19:46:03.091Z,95216.34
2022-12-15T19:48:48.697Z,95213.97
2022-12-15T19:51:34.411Z,95212.16
2022-12-15T19:54:22.206Z,95220.06
2022-12-15T19:57:16.561Z,95229.44
2022-12-15T20:00:03.174Z,95223.56
2022-12-15T20:02:57.612Z,95225.75
2022-12-15T20:05:44.067Z,95226.34
2022-12-15T20:08:34.708Z,95222.06
2022-12-15T20:11:21.581Z,95213.97
2022-12-15T20:14:15.438Z,95222.06
2022-12-15T20:17:02.276Z,95220.16
2022-12-15T20:19:47.937Z,95208.59
2022-12-15T20:22:33.686Z,95218.28
2022-12-15T20:25:23.991Z,95213.38
2022-12-15T20:28:30.337Z,95223.66
2022-12-15T20:31:18.321Z,95216.06
2022-12-15T20:34:04.160Z,95204.81
2022-12-15T20:36:50.138Z,95213.38
2022-12-15T20:39:36.016Z,95225.75
2022-12-15T20:42:22.265Z,95218.97
2022-12-15T20:45:07.922Z,95206.78
2022-12-15T20:47:55.053Z,95205.50
2022-12-15T20:50:48.909Z,95225.34
2022-12-15T20:53:35.142Z,95205.22
2022-12-15T20:56:23.080Z,95213.28
2022-12-15T20:59:09.190Z,95199.03
2022-12-15T21:01:55.082Z,95222.47
2022-12-15T21:04:41.201Z,95211.19
2022-12-15T21:07:27.185Z,95212.78
2022-12-15T21:10:14.501Z,95205.22
2022-12-15T21:13:00.403Z,95189.63
2022-12-15T21:15:46.884Z,95180.97
2022-12-15T21:21:43.720Z,95164.09
2022-12-15T21:24:29.808Z,95185.84
2022-12-15T21:27:15.328Z,95178.88
2022-12-15T21:30:00.869Z,95173.47
2022-12-15T21:32:50.730Z,95178.88
2022-12-15T21:35:39.227Z,95176.19
2022-12-15T21:38:34.935Z,95188.03
2022-12-15T21:41:22.853Z,95181.06
2022-12-15T21:44:15.361Z,95188.63
2022-12-15T21:47:01.136Z,95190.03
2022-12-15T21:49:46.834Z,95203.84
2022-12-15T21:52:32.714Z,95211.41
2022-12-15T21:55:21.426Z,95215.78
2022-12-15T21:58:19.254Z,95212.00
2022-12-15T22:01:05.318Z,95221.19
2022-12-15T22:03:53.513Z,95208.81
2022-12-15T22:06:40.660Z,95193.88
2022-12-15T22:09:26.297Z,95192.44
2022-12-15T22:12:23.299Z,95186.88
2022-12-15T22:15:21.115Z,95193.38
2022-12-15T22:18:13.492Z,95185.88
2022-12-15T22:20:59.160Z,95188.28
2022-12-15T22:23:45.021Z,95178.31
2022-12-15T22:26:31.753Z,95173.50
2022-12-15T22:29:20.866Z,95175.59
2022-12-15T22:32:14.726Z,95177.31
2022-12-15T22:35:00.420Z,95174.59
2022-12-15T22:37:47.244Z,95157.97
2022-12-15T22:40:33.009Z,95152.59
2022-12-15T22:43:20.070Z,95157.47
2022-12-15T22:46:08.200Z,95142.41
2022-12-15T22:48:54.776Z,95145.13
2022-12-15T22:51:41.323Z,95141.63
2022-12-15T22:54:29.049Z,95130.06
2022-12-15T22:57:22.694Z,95135.53
2022-12-15T23:00:11.070Z,95126.88
2022-12-15T23:05:48.962Z,95135.44
2022-12-15T23:08:37.728Z,95112.09
2022-12-15T23:11:39.189Z,95123.88
2022-12-15T23:14:44.718Z,95122.28
2022-12-15T23:17:30.685Z,95125.56
2022-12-15T23:20:16.350Z,95118.28
2022-12-15T23:23:02.214Z,95117.31
2022-12-15T23:25:48.030Z,95122.19
2022-12-15T23:28:34.282Z,95117.31
2022-12-15T23:31:20.662Z,95118.41
2022-12-15T23:34:06.251Z,95119.22
2022-12-15T23:36:51.956Z,95117.91
2022-12-15T23:39:37.453Z,95106.66
2022-12-15T23:42:22.957Z,95106.13
2022-12-15T23:45:09.513Z,95098.06
2022-12-15T23:47:55.459Z,95104.53
2022-12-15T23:50:41.382Z,95099.28
2022-12-15T23:53:27.283Z,95089.13
2022-12-15T23:56:18.586Z,95081.03
2022-12-15T23:59:04.357Z,95069.28
